Time;durP1;ratioP1;P1;durP2;ratioP2;P2;SDS_P1;SDS_P2;PMS_P1;PMS_P2;Temp;Humidity;BMP_temperature;BMP_pressure;BME280_temperature;BME280_humidity;BME280_pressure;Samples;Min_cycle;Max_cycle;Signal;HPM_P1;HPM_P2
2023/06/14 00:00:13;;;;;;;7.00;5.80;;;;;;;14.24;65.61;100907.96;110818;1209;139805;-62
2023/06/14 00:02:39;;;;;;;8.50;7.10;;;;;;;14.26;65.68;100904.25;110993;1211;99105;-65
2023/06/14 00:05:06;;;;;;;9.20;6.60;;;;;;;14.24;65.88;100910.45;111022;1209;99076;-63
2023/06/14 00:07:36;;;;;;;10.40;6.10;;;;;;;14.19;66.03;100913.25;110829;1211;140383;-62
2023/06/14 00:10:03;;;;;;;8.50;6.60;;;;;;;14.17;66.46;100912.28;110873;1212;99997;-62
2023/06/14 00:12:28;;;;;;;12.20;6.70;;;;;;;14.16;66.67;100911.81;110791;1209;139763;-62
2023/06/14 00:14:53;;;;;;;11.00;5.90;;;;;;;14.15;66.79;100908.63;110930;1212;99209;-62
2023/06/14 00:17:19;;;;;;;7.80;6.70;;;;;;;14.14;67.11;100908.15;110918;1212;113100;-62
2023/06/14 00:19:44;;;;;;;8.40;5.90;;;;;;;14.12;67.52;100903.42;110765;1212;139645;-62
2023/06/14 00:22:10;;;;;;;8.90;5.70;;;;;;;14.10;67.61;100904.23;110916;1225;99035;-62
2023/06/14 00:24:35;;;;;;;7.40;5.60;;;;;;;14.11;67.74;100907.05;110819;1210;140642;-62
2023/06/14 00:27:00;;;;;;;7.70;6.10;;;;;;;14.13;67.81;100910.73;110880;1212;98964;-62
2023/06/14 00:29:26;;;;;;;9.30;5.70;;;;;;;14.15;67.85;100912.75;110840;1209;139117;-62
2023/06/14 00:31:51;;;;;;;9.10;6.10;;;;;;;14.16;67.91;100916.66;110928;1212;99054;-62
2023/06/14 00:34:16;;;;;;;8.50;5.90;;;;;;;14.14;68.15;100911.39;110923;1209;99637;-62
2023/06/14 00:36:41;;;;;;;6.80;5.50;;;;;;;14.14;68.24;100911.03;110807;1222;140607;-62
2023/06/14 00:39:07;;;;;;;7.00;5.60;;;;;;;14.12;68.27;100906.98;110927;1212;99028;-62
2023/06/14 00:41:32;;;;;;;9.20;5.70;;;;;;;14.12;68.38;100908.42;110799;1212;140269;-62
2023/06/14 00:43:57;;;;;;;6.50;4.50;;;;;;;14.14;68.49;100911.20;111001;1210;99747;-62
2023/06/14 00:46:22;;;;;;;8.40;5.80;;;;;;;14.14;68.58;100907.61;110886;1209;108005;-63
2023/06/14 00:48:48;;;;;;;6.70;4.90;;;;;;;14.16;68.49;100906.59;110835;1212;138866;-63
2023/06/14 00:51:14;;;;;;;6.60;4.80;;;;;;;14.15;68.75;100903.41;111030;1210;97827;-63
2023/06/14 00:53:40;;;;;;;9.20;5.70;;;;;;;14.16;68.85;100902.98;110834;1212;140174;-62
2023/06/14 00:56:06;;;;;;;9.70;5.20;;;;;;;14.17;68.63;100904.55;110850;1209;99099;-62
2023/06/14 00:58:32;;;;;;;7.50;4.90;;;;;;;14.13;68.94;100906.38;110987;1212;99054;-63
2023/06/14 01:00:58;;;;;;;8.90;4.60;;;;;;;14.11;69.02;100900.57;110790;1212;139721;-62
2023/06/14 01:03:25;;;;;;;8.30;5.40;;;;;;;14.09;69.08;100898.70;110984;1209;98954;-62
2023/06/14 01:06:05;;;;;;;9.10;5.00;;;;;;;14.08;69.23;100905.79;110786;1208;139345;-62
2023/06/14 01:08:51;;;;;;;9.00;4.10;;;;;;;14.10;69.37;100907.30;110888;1212;99658;-63
2023/06/14 01:11:31;;;;;;;7.30;4.40;;;;;;;14.07;69.50;100906.36;110930;1209;99471;-62
2023/06/14 01:13:59;;;;;;;6.30;4.30;;;;;;;14.06;69.64;100907.13;110935;1221;113100;-63
2023/06/14 01:16:25;;;;;;;8.80;4.70;;;;;;;14.04;69.60;100910.52;110965;1212;99933;-63
2023/06/14 01:18:56;;;;;;;4.40;3.70;;;;;;;14.00;69.78;100906.95;110826;1212;139858;-62
2023/06/14 01:21:25;;;;;;;6.40;4.70;;;;;;;13.97;69.87;100905.23;110915;1210;99019;-63
2023/06/14 01:23:55;;;;;;;6.00;4.20;;;;;;;13.96;69.97;100905.13;110832;1210;140359;-63
2023/06/14 01:26:22;;;;;;;8.60;4.90;;;;;;;13.96;70.14;100898.16;110886;1210;113590;-63
2023/06/14 01:28:49;;;;;;;6.10;4.40;;;;;;;13.97;70.31;100895.77;111010;1212;99057;-63
2023/06/14 01:31:19;;;;;;;7.40;4.00;;;;;;;13.97;70.15;100893.94;110790;1212;139128;-63
2023/06/14 01:33:46;;;;;;;9.90;4.20;;;;;;;13.92;70.09;100887.04;110885;1212;99791;-63
2023/06/14 01:36:12;;;;;;;7.30;3.70;;;;;;;13.87;70.26;100880.67;110817;1209;139679;-63
2023/06/14 01:38:37;;;;;;;3.80;3.20;;;;;;;13.83;70.27;100880.50;110949;1212;99928;-64
2023/06/14 01:41:03;;;;;;;7.20;3.90;;;;;;;13.78;70.47;100877.52;110986;1210;99041;-63
2023/06/14 01:43:31;;;;;;;5.30;3.70;;;;;;;13.78;70.66;100883.30;110845;1212;139940;-63
2023/06/14 01:45:57;;;;;;;10.80;4.00;;;;;;;13.78;70.67;100881.84;110946;1210;98949;-63
2023/06/14 01:48:23;;;;;;;5.00;3.90;;;;;;;13.78;70.89;100877.71;110906;1210;138857;-64
2023/06/14 01:50:49;;;;;;;4.20;3.60;;;;;;;13.79;70.84;100874.29;111031;1209;99267;-63
2023/06/14 01:53:15;;;;;;;8.50;4.90;;;;;;;13.75;70.96;100874.14;110929;1213;99084;-64
2023/06/14 01:55:43;;;;;;;5.70;3.80;;;;;;;13.73;70.98;100869.41;110820;1208;140245;-64
2023/06/14 01:58:09;;;;;;;8.60;4.30;;;;;;;13.67;71.19;100868.63;110927;1209;100342;-63
2023/06/14 02:00:34;;;;;;;7.30;4.10;;;;;;;13.65;71.41;100862.08;110915;1212;139567;-63
2023/06/14 02:03:00;;;;;;;6.80;4.20;;;;;;;13.63;71.55;100861.63;110862;1212;98945;-63
2023/06/14 02:05:26;;;;;;;4.40;3.70;;;;;;;13.63;71.61;100859.84;110848;1209;139387;-63
2023/06/14 02:07:53;;;;;;;9.90;3.80;;;;;;;13.63;71.74;100854.11;111068;1210;100220;-63
2023/06/14 02:10:19;;;;;;;6.00;4.40;;;;;;;13.63;71.64;100856.44;110955;1209;107324;-63
2023/06/14 02:12:44;;;;;;;8.20;4.40;;;;;;;13.59;71.88;100862.23;110883;1212;139743;-63
2023/06/14 02:15:16;;;;;;;8.30;5.00;;;;;;;13.55;72.20;100861.89;110999;1212;98988;-63
2023/06/14 02:17:43;;;;;;;6.40;4.40;;;;;;;13.55;72.29;100862.93;110812;1212;138920;-63
2023/06/14 02:20:09;;;;;;;7.20;4.80;;;;;;;13.57;72.59;100864.83;110972;1210;98934;-63
2023/06/14 02:22:34;;;;;;;6.00;4.10;;;;;;;13.58;72.48;100869.10;110962;1212;98974;-63
2023/06/14 02:25:00;;;;;;;8.20;4.40;;;;;;;13.55;72.64;100869.05;110902;1212;139493;-63
2023/06/14 02:27:25;;;;;;;5.80;4.40;;;;;;;13.55;72.82;100869.97;110990;1212;98925;-63
2023/06/14 02:29:50;;;;;;;7.60;4.40;;;;;;;13.54;72.78;100870.73;110867;1212;140345;-63
2023/06/14 02:32:15;;;;;;;6.50;4.30;;;;;;;13.53;72.86;100869.52;110966;1209;98955;-64
2023/06/14 02:34:42;;;;;;;6.30;3.90;;;;;;;13.51;72.98;100869.84;110991;1212;99045;-64
2023/06/14 02:37:08;;;;;;;5.70;4.50;;;;;;;13.50;73.09;100875.64;110873;1210;139244;-64
2023/06/14 02:39:33;;;;;;;9.30;4.40;;;;;;;13.48;73.15;100870.86;110911;1212;99104;-63
2023/06/14 02:41:59;;;;;;;5.20;4.10;;;;;;;13.48;73.14;100869.27;110988;1212;139576;-63
2023/06/14 02:44:27;;;;;;;5.50;3.90;;;;;;;13.48;73.26;100873.02;110993;1212;99042;-63
2023/06/14 02:46:54;;;;;;;5.50;4.30;;;;;;;13.47;73.27;100879.52;111000;1209;107423;-64
2023/06/14 02:49:19;;;;;;;6.80;4.10;;;;;;;13.48;73.35;100882.02;110884;1208;138987;-64
2023/06/14 02:51:45;;;;;;;7.60;4.80;;;;;;;13.47;73.37;100882.24;110929;1209;98965;-63
2023/06/14 02:54:10;;;;;;;6.30;4.30;;;;;;;13.43;73.56;100884.27;110857;1210;139044;-64
2023/06/14 02:56:36;;;;;;;5.80;4.40;;;;;;;13.42;73.76;100885.04;110867;1210;99155;-64
2023/06/14 02:59:02;;;;;;;8.70;4.30;;;;;;;13.42;73.64;100882.12;110941;1217;97770;-64
2023/06/14 03:01:33;;;;;;;8.80;4.90;;;;;;;13.40;73.66;100882.41;110843;1212;139604;-64
2023/06/14 03:03:59;;;;;;;7.10;4.70;;;;;;;13.36;73.75;100881.17;111086;1212;99369;-63
2023/06/14 03:06:25;;;;;;;8.10;4.60;;;;;;;13.33;74.06;100879.91;110850;1212;139157;-63
2023/06/14 03:08:51;;;;;;;7.90;4.70;;;;;;;13.34;74.08;100880.73;111024;1210;99051;-63
2023/06/14 03:11:20;;;;;;;6.30;4.30;;;;;;;13.34;74.21;100877.50;110928;1212;112335;-63
2023/06/14 03:13:46;;;;;;;10.50;5.10;;;;;;;13.34;74.19;100875.91;110781;1214;139587;-63
2023/06/14 03:16:12;;;;;;;5.90;4.60;;;;;;;13.33;74.28;100876.86;110878;1212;99076;-63
2023/06/14 03:18:38;;;;;;;6.90;4.30;;;;;;;13.32;74.37;100877.98;110875;1212;139803;-63
2023/06/14 03:21:03;;;;;;;7.60;4.80;;;;;;;13.34;74.40;100879.67;110938;1212;111788;-64
2023/06/14 03:23:28;;;;;;;6.50;4.20;;;;;;;13.36;74.55;100875.46;110790;1212;139858;-64
2023/06/14 03:25:54;;;;;;;7.30;4.10;;;;;;;13.35;74.59;100876.58;110935;1212;99122;-64
2023/06/14 03:28:20;;;;;;;9.20;4.90;;;;;;;13.36;74.50;100875.27;110952;1212;99000;-64
2023/06/14 03:30:45;;;;;;;7.80;4.90;;;;;;;13.36;74.63;100877.80;110864;1209;139655;-64
2023/06/14 03:33:11;;;;;;;6.40;4.50;;;;;;;13.36;74.87;100879.58;110917;1210;107769;-64
2023/06/14 03:35:36;;;;;;;7.60;4.40;;;;;;;13.40;74.80;100884.02;110750;1209;140678;-64
2023/06/14 03:38:02;;;;;;;12.70;4.70;;;;;;;13.43;74.83;100884.77;110996;1212;99676;-64
2023/06/14 03:40:28;;;;;;;5.60;4.10;;;;;;;13.45;74.84;100887.02;110931;1208;99076;-64
2023/06/14 03:42:56;;;;;;;8.70;4.40;;;;;;;13.47;74.87;100893.89;110822;1212;138824;-64
2023/06/14 03:45:21;;;;;;;6.70;4.60;;;;;;;13.49;74.78;100897.41;110839;1212;98508;-64
2023/06/14 03:47:47;;;;;;;7.80;4.50;;;;;;;13.52;74.91;100893.48;110913;1212;138932;-63
2023/06/14 03:50:12;;;;;;;7.90;4.80;;;;;;;13.53;74.95;100895.21;110875;1209;98947;-64
2023/06/14 03:52:38;;;;;;;7.00;4.60;;;;;;;13.52;74.98;100894.20;110930;1210;98999;-63
2023/06/14 03:55:04;;;;;;;5.80;4.10;;;;;;;13.53;75.08;100896.66;110856;1208;138829;-64
2023/06/14 03:57:30;;;;;;;9.10;4.90;;;;;;;13.53;75.20;100898.61;111057;1212;98928;-64
2023/06/14 03:59:55;;;;;;;6.40;4.40;;;;;;;13.53;75.09;100897.38;110901;1212;139400;-64
2023/06/14 04:02:20;;;;;;;6.10;4.80;;;;;;;13.51;75.22;100897.98;110906;1212;99062;-64
2023/06/14 04:04:46;;;;;;;5.20;4.40;;;;;;;13.50;75.31;100903.63;110962;1212;99795;-64
2023/06/14 04:07:12;;;;;;;6.60;4.80;;;;;;;13.50;75.36;100902.00;110828;1212;138725;-64
2023/06/14 04:09:38;;;;;;;6.80;4.30;;;;;;;13.51;75.43;100906.42;111014;1211;107655;-64
2023/06/14 04:12:05;;;;;;;7.70;4.50;;;;;;;13.55;75.28;100909.47;110877;1212;140534;-64
2023/06/14 04:14:32;;;;;;;5.70;4.60;;;;;;;13.56;75.39;100905.80;110997;1212;99053;-64
2023/06/14 04:16:58;;;;;;;11.70;4.00;;;;;;;13.60;75.33;100909.92;110900;1212;99019;-64
2023/06/14 04:19:24;;;;;;;7.90;4.80;;;;;;;13.60;75.26;100907.79;110959;1212;138958;-64
2023/06/14 04:21:50;;;;;;;5.00;3.60;;;;;;;13.56;75.46;100906.02;110937;1212;98955;-63
2023/06/14 04:24:15;;;;;;;9.10;4.40;;;;;;;13.54;75.57;100908.42;110786;1212;140510;-64
2023/06/14 04:26:45;;;;;;;10.20;4.20;;;;;;;13.54;75.60;100911.13;111004;1212;99003;-64
2023/06/14 04:29:16;;;;;;;8.20;4.60;;;;;;;13.54;75.67;100909.33;110860;1212;108331;-64
2023/06/14 04:31:42;;;;;;;11.20;5.20;;;;;;;13.55;75.64;100912.70;110826;1209;139811;-64
2023/06/14 04:34:07;;;;;;;8.80;5.20;;;;;;;13.58;75.77;100911.27;110893;1212;99053;-64
2023/06/14 04:36:41;;;;;;;8.40;4.60;;;;;;;13.64;75.72;100917.63;110909;1209;140315;-64
2023/06/14 04:39:07;;;;;;;8.10;4.80;;;;;;;13.67;75.75;100914.25;110894;1209;107678;-63
2023/06/14 04:41:32;;;;;;;8.20;4.70;;;;;;;13.67;75.83;100911.36;110792;1208;139812;-63
2023/06/14 04:44:01;;;;;;;12.10;5.80;;;;;;;13.71;75.86;100913.31;110960;1209;98939;-63
2023/06/14 04:46:28;;;;;;;10.40;6.20;;;;;;;13.71;75.71;100916.72;110884;1212;100259;-64
2023/06/14 04:48:54;;;;;;;7.60;5.00;;;;;;;13.71;75.80;100910.65;110764;1212;139564;-63
2023/06/14 04:51:21;;;;;;;6.40;4.70;;;;;;;13.71;75.86;100912.94;110893;1209;98968;-63
2023/06/14 04:53:46;;;;;;;10.00;5.10;;;;;;;13.71;75.88;100914.95;110817;1208;139446;-63
2023/06/14 04:56:11;;;;;;;8.10;4.60;;;;;;;13.72;76.00;100916.48;110982;1209;99406;-63
2023/06/14 04:58:38;;;;;;;9.40;5.60;;;;;;;13.76;76.01;100918.98;110936;1212;100194;-63
2023/06/14 05:01:03;;;;;;;9.00;4.70;;;;;;;13.78;76.03;100924.23;110744;1212;139764;-64
2023/06/14 05:03:30;;;;;;;9.10;5.30;;;;;;;13.80;76.11;100928.42;111020;1209;98980;-64
2023/06/14 05:05:56;;;;;;;8.20;5.10;;;;;;;13.81;76.12;100928.60;110841;1212;139624;-64
2023/06/14 05:08:25;;;;;;;9.30;4.70;;;;;;;13.80;76.29;100927.92;110913;1208;99335;-64
2023/06/14 05:10:51;;;;;;;7.80;4.50;;;;;;;13.77;76.42;100923.04;110994;1212;98973;-64
2023/06/14 05:13:17;;;;;;;10.60;5.20;;;;;;;13.78;76.54;100922.45;110764;1211;139309;-64
2023/06/14 05:15:42;;;;;;;11.10;4.60;;;;;;;13.81;76.54;100920.84;110994;1208;99114;-64
2023/06/14 05:18:09;;;;;;;6.80;4.80;;;;;;;13.83;76.45;100922.05;110762;1212;140971;-64
2023/06/14 05:20:36;;;;;;;8.40;4.80;;;;;;;13.83;76.54;100922.56;110895;1209;99844;-64
2023/06/14 05:23:02;;;;;;;9.90;4.90;;;;;;;13.85;76.56;100924.77;110871;1209;99064;-64
2023/06/14 05:25:28;;;;;;;10.20;5.40;;;;;;;13.91;76.60;100931.10;110817;1211;140429;-64
2023/06/14 05:27:53;;;;;;;8.70;5.10;;;;;;;13.95;76.54;100930.90;111014;1212;98961;-64
2023/06/14 05:30:18;;;;;;;7.70;5.00;;;;;;;14.01;76.57;100933.47;110800;1208;138822;-64
2023/06/14 05:32:44;;;;;;;10.40;5.30;;;;;;;14.07;76.54;100935.48;110974;1212;99610;-66
2023/06/14 05:35:10;;;;;;;9.50;5.60;;;;;;;14.10;76.52;100937.81;110968;1212;99012;-65
2023/06/14 05:37:36;;;;;;;8.70;5.20;;;;;;;14.15;76.50;100934.17;110849;1212;140367;-64
2023/06/14 05:40:05;;;;;;;16.20;5.10;;;;;;;14.18;76.57;100938.30;111077;1207;100029;-64
2023/06/14 05:42:30;;;;;;;12.70;5.10;;;;;;;14.20;76.40;100942.49;110895;1212;139719;-64
2023/06/14 05:44:55;;;;;;;9.20;5.30;;;;;;;14.20;76.45;100944.11;110925;1210;99129;-64
2023/06/14 05:47:21;;;;;;;10.50;5.30;;;;;;;14.22;76.42;100941.51;110956;1212;99044;-62
2023/06/14 05:49:46;;;;;;;9.30;5.20;;;;;;;14.28;76.52;100943.68;110913;1210;140458;-65
2023/06/14 05:52:12;;;;;;;17.70;5.60;;;;;;;14.27;76.32;100948.94;110940;1212;98967;-63
2023/06/14 05:54:38;;;;;;;10.70;5.50;;;;;;;14.28;76.38;100945.48;110785;1212;139454;-62
2023/06/14 05:57:05;;;;;;;14.90;5.40;;;;;;;14.31;76.45;100948.02;110924;1209;99173;-62
2023/06/14 05:59:30;;;;;;;11.80;5.10;;;;;;;14.35;76.42;100947.29;110844;1208;140167;-63
2023/06/14 06:01:55;;;;;;;13.50;4.60;;;;;;;14.42;76.46;100953.75;111012;1212;99295;-63
2023/06/14 06:04:21;;;;;;;8.10;5.00;;;;;;;14.47;76.29;100955.42;110931;1209;98941;-65
2023/06/14 06:06:47;;;;;;;10.00;5.00;;;;;;;14.46;76.21;100954.59;110799;1212;139860;-65
2023/06/14 06:09:14;;;;;;;10.30;5.80;;;;;;;14.47;76.16;100959.23;110915;1208;113070;-65
2023/06/14 06:11:40;;;;;;;6.40;4.90;;;;;;;14.48;76.30;100964.39;110817;1212;143517;-63
2023/06/14 06:14:05;;;;;;;8.60;4.80;;;;;;;14.51;76.22;100962.80;110911;1208;99053;-63
2023/06/14 06:16:31;;;;;;;9.00;4.90;;;;;;;14.46;76.35;100960.90;110892;1208;97794;-63
2023/06/14 06:18:56;;;;;;;9.10;4.80;;;;;;;14.43;76.45;100957.45;110799;1208;139343;-63
2023/06/14 06:21:21;;;;;;;15.10;5.20;;;;;;;14.42;76.31;100963.80;111012;1208;99040;-64
2023/06/14 06:23:47;;;;;;;11.50;5.70;;;;;;;14.34;76.37;100963.33;110822;1212;139372;-64
2023/06/14 06:26:12;;;;;;;9.80;5.20;;;;;;;14.34;76.44;100964.05;110936;1212;99063;-64
2023/06/14 06:28:37;;;;;;;10.70;5.70;;;;;;;14.39;76.56;100965.95;111005;1209;99382;-64
2023/06/14 06:31:03;;;;;;;10.80;5.50;;;;;;;14.39;76.49;100971.30;110808;1209;140510;-64
2023/06/14 06:33:28;;;;;;;12.20;5.40;;;;;;;14.41;76.62;100968.15;111018;1212;99047;-64
2023/06/14 06:35:53;;;;;;;8.40;4.90;;;;;;;14.42;76.57;100972.47;110795;1212;138176;-64
2023/06/14 06:38:18;;;;;;;11.40;5.40;;;;;;;14.41;76.73;100973.73;110947;1223;99050;-64
2023/06/14 06:40:44;;;;;;;8.50;4.80;;;;;;;14.46;76.76;100974.91;110879;1212;98934;-64
2023/06/14 06:43:13;;;;;;;10.90;5.30;;;;;;;14.58;76.82;100981.13;110828;1212;139674;-64
2023/06/14 06:45:38;;;;;;;13.10;5.30;;;;;;;14.71;76.77;100980.95;110912;1212;99090;-64
2023/06/14 06:48:04;;;;;;;9.20;5.00;;;;;;;14.75;76.64;100972.47;110792;1212;139389;-64
2023/06/14 06:50:30;;;;;;;10.40;5.10;;;;;;;14.85;76.81;100974.21;110978;1212;99002;-63
2023/06/14 06:52:55;;;;;;;14.40;6.80;;;;;;;14.92;76.63;100975.75;110938;1209;99091;-63
2023/06/14 06:55:21;;;;;;;10.30;6.40;;;;;;;14.99;76.56;100980.26;110774;1212;139580;-64
2023/06/14 06:57:46;;;;;;;10.30;5.10;;;;;;;15.06;76.61;100980.23;110977;1208;99054;-63
2023/06/14 07:00:12;;;;;;;10.50;4.50;;;;;;;15.10;76.39;100980.92;110781;1209;138945;-64
2023/06/14 07:02:38;;;;;;;13.00;5.10;;;;;;;15.12;76.41;100979.14;111008;1212;99156;-64
2023/06/14 07:05:04;;;;;;;6.80;4.20;;;;;;;15.15;76.25;100978.41;110844;1210;100081;-64
2023/06/14 07:07:29;;;;;;;16.00;4.30;;;;;;;15.19;76.17;100983.06;110956;1208;140536;-64
2023/06/14 07:09:57;;;;;;;8.10;4.60;;;;;;;15.21;76.05;100990.13;110955;1208;99025;-64
2023/06/14 07:12:23;;;;;;;6.20;4.40;;;;;;;15.25;76.08;100998.38;110764;1212;138833;-63
2023/06/14 07:14:48;;;;;;;10.50;4.70;;;;;;;15.29;75.98;100998.73;110933;1209;98945;-63
2023/06/14 07:17:13;;;;;;;13.70;4.50;;;;;;;15.32;75.81;100996.71;110924;1209;98944;-63
2023/06/14 07:19:38;;;;;;;10.70;4.90;;;;;;;15.27;75.52;100997.58;110763;1220;139380;-63
2023/06/14 07:22:04;;;;;;;10.90;5.20;;;;;;;15.21;75.57;100991.77;110933;1208;99054;-63
2023/06/14 07:24:29;;;;;;;7.50;5.20;;;;;;;15.23;75.54;100991.13;110805;1209;139928;-63
2023/06/14 07:26:55;;;;;;;7.80;4.70;;;;;;;15.24;75.45;100992.86;110915;1212;99044;-63
2023/06/14 07:29:21;;;;;;;6.90;4.60;;;;;;;15.16;75.16;100993.15;110953;1211;98938;-64
2023/06/14 07:31:46;;;;;;;8.90;4.30;;;;;;;15.08;75.30;100993.62;110896;1212;139143;-64
2023/06/14 07:34:12;;;;;;;11.30;5.10;;;;;;;15.06;75.35;100991.04;110855;1212;98946;-64
2023/06/14 07:36:37;;;;;;;8.50;4.40;;;;;;;15.09;75.54;100991.04;110849;1212;138809;-64
2023/06/14 07:39:04;;;;;;;6.40;4.20;;;;;;;15.16;75.49;100991.38;110897;1208;99053;-64
2023/06/14 07:41:29;;;;;;;9.20;5.20;;;;;;;15.17;75.36;100991.11;110794;1209;139547;-64
2023/06/14 07:43:55;;;;;;;8.50;4.40;;;;;;;15.19;75.22;100996.20;110912;1212;99021;-64
2023/06/14 07:46:20;;;;;;;10.60;4.70;;;;;;;15.19;75.22;100997.66;110974;1208;99000;-64
2023/06/14 07:48:45;;;;;;;12.80;4.40;;;;;;;15.24;75.45;101002.95;110943;1211;140693;-64
2023/06/14 07:51:10;;;;;;;8.00;5.10;;;;;;;15.39;75.58;101002.12;110888;1225;107735;-64
2023/06/14 07:53:36;;;;;;;8.60;4.00;;;;;;;15.51;75.48;101002.27;110837;1212;139375;-64
2023/06/14 07:56:02;;;;;;;8.80;5.10;;;;;;;15.55;75.27;101005.13;110962;1209;98998;-63
2023/06/14 07:58:27;;;;;;;9.10;4.80;;;;;;;15.54;75.17;101000.48;110923;1208;99588;-63
2023/06/14 08:00:53;;;;;;;7.30;4.90;;;;;;;15.53;75.16;100992.96;110824;1212;139749;-63
2023/06/14 08:03:19;;;;;;;10.80;4.50;;;;;;;15.48;75.01;100989.16;110950;1211;98927;-64
2023/06/14 08:05:44;;;;;;;9.30;5.60;;;;;;;15.41;74.94;100995.13;110814;1212;139456;-63
2023/06/14 08:08:10;;;;;;;8.10;4.50;;;;;;;15.36;74.94;100992.72;110946;1209;99048;-63
2023/06/14 08:10:35;;;;;;;6.60;4.30;;;;;;;15.33;74.91;100988.96;110912;1212;99121;-64
2023/06/14 08:13:00;;;;;;;7.50;4.50;;;;;;;15.35;74.87;100990.63;110764;1212;139824;-63
2023/06/14 08:15:25;;;;;;;9.10;3.90;;;;;;;15.35;74.85;100983.23;110948;1212;99063;-63
2023/06/14 08:17:51;;;;;;;7.20;3.90;;;;;;;15.39;74.80;100978.31;110778;1212;139968;-63
2023/06/14 08:20:16;;;;;;;8.80;5.00;;;;;;;15.47;74.74;100989.73;110992;1212;98959;-64
2023/06/14 08:22:42;;;;;;;10.40;4.70;;;;;;;15.53;74.80;100994.95;110937;1209;98938;-64
2023/06/14 08:25:08;;;;;;;6.60;4.40;;;;;;;15.63;74.83;100990.23;110853;1219;139298;-63
2023/06/14 08:27:34;;;;;;;10.80;5.30;;;;;;;15.74;74.64;100989.59;111066;1212;98945;-64
2023/06/14 08:30:00;;;;;;;7.10;4.50;;;;;;;15.78;74.53;100987.73;110787;1212;139635;-63
2023/06/14 08:32:25;;;;;;;11.50;4.60;;;;;;;15.81;74.37;100988.46;110946;1212;99064;-64
2023/06/14 08:34:50;;;;;;;6.00;4.60;;;;;;;15.82;74.45;100989.43;110943;1209;99067;-64
2023/06/14 08:37:16;;;;;;;5.70;4.10;;;;;;;15.84;74.30;100992.22;110783;1212;139344;-63
2023/06/14 08:39:41;;;;;;;7.90;4.70;;;;;;;15.85;74.20;100994.70;111021;1212;102039;-63
2023/06/14 08:42:08;;;;;;;6.90;4.20;;;;;;;15.97;74.38;100994.16;110797;1208;140706;-63
2023/06/14 08:44:34;;;;;;;11.20;4.60;;;;;;;16.17;74.18;100989.88;110898;1211;99161;-64
2023/06/14 08:47:00;;;;;;;14.30;4.60;;;;;;;16.34;74.07;100992.57;110870;1212;99070;-64
2023/06/14 08:49:26;;;;;;;11.60;4.50;;;;;;;16.54;73.97;100995.46;110876;1208;139411;-63
2023/06/14 08:51:59;;;;;;;10.90;4.50;;;;;;;16.54;73.34;100997.13;110905;1212;99047;-63
2023/06/14 08:54:30;;;;;;;7.10;4.30;;;;;;;16.58;73.32;100995.08;110862;1208;139423;-63
2023/06/14 08:56:57;;;;;;;6.20;4.00;;;;;;;16.73;73.30;100989.13;111025;1224;99010;-63
2023/06/14 08:59:26;;;;;;;12.60;4.70;;;;;;;16.86;73.09;100990.41;110916;1212;138993;-63
2023/06/14 09:01:52;;;;;;;16.90;5.60;;;;;;;16.98;72.81;100991.67;111027;1212;113072;-64
2023/06/14 09:04:19;;;;;;;20.30;5.80;;;;;;;17.15;72.92;100990.02;110960;1208;99513;-63
2023/06/14 09:06:45;;;;;;;12.90;4.80;;;;;;;17.33;72.56;100990.66;110813;1214;139627;-64
2023/06/14 09:09:11;;;;;;;6.90;3.70;;;;;;;17.39;72.23;100989.87;110993;1212;98935;-63
2023/06/14 09:11:36;;;;;;;8.40;4.70;;;;;;;17.48;71.92;100989.45;110779;1208;139396;-63
2023/06/14 09:14:01;;;;;;;7.60;3.80;;;;;;;17.46;71.38;100987.77;110884;1208;99102;-63
2023/06/14 09:16:27;;;;;;;7.50;3.70;;;;;;;17.43;71.05;100994.09;110969;1212;99050;-63
2023/06/14 09:18:54;;;;;;;11.20;3.20;;;;;;;17.53;70.96;100990.20;110890;1211;140215;-63
2023/06/14 09:21:20;;;;;;;6.00;3.30;;;;;;;17.72;70.89;100989.45;110934;1212;98938;-63
2023/06/14 09:23:47;;;;;;;8.80;3.10;;;;;;;17.85;70.25;100991.50;110825;1208;140298;-63
2023/06/14 09:26:19;;;;;;;7.90;4.30;;;;;;;17.92;69.56;100988.52;111055;1211;99000;-63
2023/06/14 09:28:49;;;;;;;9.60;3.60;;;;;;;17.99;69.47;100989.23;111016;1208;98971;-63
2023/06/14 09:31:19;;;;;;;7.50;3.70;;;;;;;18.08;68.92;100987.73;110900;1208;138263;-63
2023/06/14 09:33:49;;;;;;;6.10;3.60;;;;;;;18.16;68.83;100984.09;110916;1212;98898;-63
2023/06/14 09:36:27;;;;;;;10.40;3.90;;;;;;;18.23;68.41;100977.04;110781;1208;138535;-63
2023/06/14 09:38:57;;;;;;;4.10;2.90;;;;;;;18.21;67.79;100975.25;110959;1212;99029;-63
2023/06/14 09:41:36;;;;;;;4.60;3.50;;;;;;;18.20;67.42;100976.98;110844;1208;138823;-63
2023/06/14 09:44:04;;;;;;;8.10;3.40;;;;;;;18.27;67.28;100973.36;110907;1212;104260;-63
2023/06/14 09:46:30;;;;;;;5.80;3.50;;;;;;;18.32;66.73;100974.23;110958;1208;99143;-63
2023/06/14 09:48:59;;;;;;;13.40;4.10;;;;;;;18.37;66.43;100972.84;110802;1212;138689;-63
2023/06/14 09:51:26;;;;;;;8.00;3.50;;;;;;;18.43;66.23;100970.58;111002;1212;98952;-63
2023/06/14 09:53:52;;;;;;;12.70;4.10;;;;;;;18.46;65.86;100970.56;110903;1210;139050;-63
2023/06/14 09:56:41;;;;;;;7.90;3.60;;;;;;;18.53;65.55;100970.61;110946;1212;98936;-63
2023/06/14 09:59:09;;;;;;;8.70;3.50;;;;;;;18.54;65.14;100966.34;110971;1212;99045;-63
2023/06/14 10:01:41;;;;;;;10.80;3.90;;;;;;;18.54;63.97;100961.28;110841;1212;139394;-63
2023/06/14 10:04:07;;;;;;;11.00;3.80;;;;;;;18.52;63.49;100954.38;110841;1221;100280;-63
2023/06/14 10:06:36;;;;;;;7.30;3.80;;;;;;;18.55;63.75;100951.99;110804;1212;138870;-63
2023/06/14 10:09:05;;;;;;;4.60;3.30;;;;;;;18.78;63.64;100945.30;110942;1212;103782;-63
2023/06/14 10:11:31;;;;;;;7.10;3.90;;;;;;;18.95;63.04;100947.83;110860;1212;139052;-63
2023/06/14 10:13:57;;;;;;;7.50;3.60;;;;;;;18.90;62.19;100939.31;110934;1207;98977;-63
2023/06/14 10:16:46;;;;;;;13.10;4.50;;;;;;;18.86;61.99;100937.67;110942;1212;98997;-63
2023/06/14 10:19:23;;;;;;;16.80;5.00;;;;;;;18.95;62.14;100940.23;110845;1208;138886;-62
2023/06/14 10:22:01;;;;;;;7.70;4.00;;;;;;;19.14;62.08;100936.44;110932;1212;113060;-63
2023/06/14 10:24:32;;;;;;;13.70;4.80;;;;;;;19.23;61.92;100934.48;110851;1212;140390;-63
2023/06/14 10:26:59;;;;;;;10.90;3.70;;;;;;;19.34;61.67;100939.11;110912;1212;99414;-63
2023/06/14 10:29:26;;;;;;;17.10;4.00;;;;;;;19.41;61.33;100939.33;110856;1212;139748;-63
2023/06/14 10:31:57;;;;;;;10.50;4.10;;;;;;;19.39;60.86;100938.20;111020;1208;98740;-62
2023/06/14 10:34:27;;;;;;;13.10;3.90;;;;;;;19.30;60.69;100933.64;110897;1212;104386;-63
2023/06/14 10:37:06;;;;;;;7.80;3.00;;;;;;;19.42;60.75;100931.11;110825;1214;140243;-63
2023/06/14 10:39:35;;;;;;;12.20;3.50;;;;;;;19.61;60.89;100923.66;110917;1225;100364;-63
2023/06/14 10:42:04;;;;;;;6.40;3.70;;;;;;;19.84;60.82;100920.78;110783;1211;138809;-63
2023/06/14 10:44:29;;;;;;;8.70;3.90;;;;;;;20.16;60.83;100919.55;110979;1208;99099;-63
2023/06/14 10:46:58;;;;;;;6.70;3.70;;;;;;;20.51;60.61;100913.67;110955;1208;99029;-63
2023/06/14 10:49:44;;;;;;;7.50;3.50;;;;;;;20.66;59.35;100914.44;110864;1208;138261;-63
2023/06/14 10:52:18;;;;;;;6.30;3.10;;;;;;;20.54;58.79;100912.16;110988;1212;99132;-64
2023/06/14 10:55:06;;;;;;;3.90;3.40;;;;;;;20.54;58.65;100910.02;110795;1208;139263;-63
2023/06/14 10:57:32;;;;;;;9.10;5.40;;;;;;;20.59;58.31;100912.11;110964;1212;99033;-63
2023/06/14 10:59:59;;;;;;;15.50;3.90;;;;;;;20.63;57.86;100908.95;110861;1212;138994;-63
2023/06/14 11:02:46;;;;;;;8.00;3.20;;;;;;;20.63;57.38;100908.52;110957;1214;99046;-64
2023/06/14 11:05:15;;;;;;;6.20;3.20;;;;;;;20.69;57.07;100913.16;110910;1212;100496;-63
2023/06/14 11:07:58;;;;;;;7.50;3.10;;;;;;;20.73;56.90;100913.33;110855;1228;139602;-64
2023/06/14 11:10:40;;;;;;;7.50;3.10;;;;;;;20.78;56.47;100909.83;110963;1208;99007;-63